Rysy — C6ZA3 — position and weather

sailwx.info

Track history (hours):
 
Tides and Currents Weather Stations Pressure Air Temp Water Temp Dewpoint Dewpoint Depression Visibility Wind Speed Wind Dir Waves Ship Positions

Rysy

Last reported at 2017-Jan-20 11:33 UTC. Time now 2017-Jan-20 15:56 UTC.
Position N 37°23' E 025°54'.

Length 229 m; draft 13.6 m.

Type: Cargo ship. MMSI: 311051200.

Date/timePositionNaut miles runAvg speedWind from/ knotsBaromVisibWave heightAir tempDewpointWater temp
2017-Jan-20 11:33N 37°23' E 025°54'  
2017-Jan-16 19:15N 46°01' E 031°04'811.6
2017-Jan-16 18:33N 46°09' E 031°08'1111.4
2017-Jan-16 17:34N 46°20' E 031°07'4 0.7
2017-Jan-16 11:18N 46°24' E 031°07'0 0.0
2017-Jan-16 10:33N 46°24' E 031°07'0 0.0
2017-Jan-16 09:33N 46°24' E 031°07'0 0.0
2017-Jan-16 08:33N 46°24' E 031°07'0 0.0
2017-Jan-16 07:33N 46°24' E 031°07'0 0.0
2017-Jan-16 06:33N 46°24' E 031°07'0 0.0
2017-Jan-16 05:33N 46°24' E 031°07'0 0.0
2017-Jan-16 04:33N 46°24' E 031°07'0 0.0
2017-Jan-16 03:33N 46°24' E 031°07'0 0.0
2017-Jan-16 02:33N 46°24' E 031°07'12 1.3
2017-Jan-15 17:10N 46°15' E 030°56'9 9.6
2017-Jan-15 16:16N 46°18' E 030°44'4 3.4
2017-Jan-15 15:08N 46°20' E 030°39'0 0.0
2017-Jan-15 14:34N 46°20' E 030°39'0 0.0
2017-Jan-15 13:13N 46°20' E 030°39'0 0.0
2017-Jan-15 12:22N 46°20' E 030°39'0 0.0
2017-Jan-15 10:31N 46°20' E 030°39'0 0.0
2017-Jan-15 09:31N 46°20' E 030°39'0 0.0
2017-Jan-15 08:28N 46°20' E 030°39'0 0.0
2017-Jan-15 07:31N 46°20' E 030°39'0 0.0
2017-Jan-15 06:16N 46°20' E 030°39'0 0.0
2017-Jan-15 05:28N 46°20' E 030°39'0 0.0
2017-Jan-15 04:25N 46°20' E 030°39'0 0.0
2017-Jan-15 03:31N 46°20' E 030°39'0 0.0
2017-Jan-15 02:25N 46°20' E 030°39'0 0.0
2017-Jan-15 01:31N 46°20' E 030°39'0 0.0
2017-Jan-15 00:22N 46°20' E 030°39'0 0.0
2017-Jan-14 19:25N 46°20' E 030°39'0 0.0
2017-Jan-14 18:28N 46°20' E 030°39'0 0.0
2017-Jan-14 17:25N 46°20' E 030°39'0 0.0
2017-Jan-14 16:28N 46°20' E 030°39'0 0.0
2017-Jan-14 15:28N 46°20' E 030°39'0 0.0
2017-Jan-14 14:22N 46°20' E 030°39'0 0.0
2017-Jan-14 13:31N 46°20' E 030°39'0 0.0
2017-Jan-14 12:28N 46°20' E 030°39'0 0.0
2017-Jan-14 09:28N 46°20' E 030°39'0 0.0
2017-Jan-14 08:34N 46°20' E 030°39'0 0.0
2017-Jan-14 07:34N 46°20' E 030°39'0 0.0
2017-Jan-14 06:33N 46°20' E 030°39'0 0.0
2017-Jan-14 05:34N 46°20' E 030°39'0 0.0
2017-Jan-14 04:34N 46°20' E 030°39'0 0.0
2017-Jan-14 03:33N 46°20' E 030°39'0 0.0
2017-Jan-13 23:33N 46°20' E 030°39'0 0.0
2017-Jan-13 22:33N 46°20' E 030°39'0 0.0
2017-Jan-13 21:33N 46°20' E 030°39'0 0.0
2017-Jan-13 20:34N 46°20' E 030°39'0 0.0
2017-Jan-13 19:33N 46°20' E 030°39'0 0.0
2017-Jan-13 18:34N 46°20' E 030°39'0 0.0
2017-Jan-13 17:33N 46°20' E 030°39'0 0.0
2017-Jan-13 16:34N 46°20' E 030°39'0 0.0
2017-Jan-13 15:33N 46°20' E 030°39'0 0.0
2017-Jan-13 14:33N 46°20' E 030°39'0 0.0
2017-Jan-13 13:33N 46°20' E 030°39'0 0.0
2017-Jan-13 12:34N 46°20' E 030°39'0 0.0
2017-Jan-13 11:33N 46°20' E 030°39'0 0.0
2017-Jan-13 10:34N 46°20' E 030°39'0 0.0
2017-Jan-13 09:33N 46°20' E 030°39'0 0.0
2017-Jan-13 08:33N 46°20' E 030°39'0 0.0
2017-Jan-13 02:21N 46°20' E 030°39'0 0.0
2017-Jan-13 01:33N 46°20' E 030°39'0 0.0
2017-Jan-13 00:33N 46°20' E 030°39'0 0.0
2017-Jan-12 23:18N 46°20' E 030°39'0 0.0
2017-Jan-12 14:28N 46°20' E 030°39'0 0.0
2017-Jan-12 13:33N 46°20' E 030°39'0 0.0
2017-Jan-12 12:33N 46°20' E 030°39'0 0.0
2017-Jan-12 11:34N 46°20' E 030°39'0 0.0
2017-Jan-11 03:32N 46°20' E 030°39'  
Track history (hours):
 
Tides and Currents Weather Stations Pressure Air Temp Water Temp Dewpoint Dewpoint Depression Visibility Wind Speed Wind Dir Waves Ship Positions

Rysy

Last reported at 2017-Jan-20 11:33 UTC. Time now 2017-Jan-20 15:56 UTC.
Position N 37°23' E 025°54'.

Length 229 m; draft 13.6 m.

Type: Cargo ship. MMSI: 311051200.

Date/timePositionNaut miles runAvg speedWind from/ knotsBaromVisibWave heightAir tempDewpointWater temp
2017-Jan-20 11:33N 37°23' E 025°54'  
2017-Jan-16 19:15N 46°01' E 031°04'811.6
2017-Jan-16 18:33N 46°09' E 031°08'1111.4
2017-Jan-16 17:34N 46°20' E 031°07'4 0.7
2017-Jan-16 11:18N 46°24' E 031°07'0 0.0
2017-Jan-16 10:33N 46°24' E 031°07'0 0.0
2017-Jan-16 09:33N 46°24' E 031°07'0 0.0
2017-Jan-16 08:33N 46°24' E 031°07'0 0.0
2017-Jan-16 07:33N 46°24' E 031°07'0 0.0
2017-Jan-16 06:33N 46°24' E 031°07'0 0.0
2017-Jan-16 05:33N 46°24' E 031°07'0 0.0
2017-Jan-16 04:33N 46°24' E 031°07'0 0.0
2017-Jan-16 03:33N 46°24' E 031°07'0 0.0
2017-Jan-16 02:33N 46°24' E 031°07'12 1.3
2017-Jan-15 17:10N 46°15' E 030°56'9 9.6
2017-Jan-15 16:16N 46°18' E 030°44'4 3.4
2017-Jan-15 15:08N 46°20' E 030°39'0 0.0
2017-Jan-15 14:34N 46°20' E 030°39'0 0.0
2017-Jan-15 13:13N 46°20' E 030°39'0 0.0
2017-Jan-15 12:22N 46°20' E 030°39'0 0.0
2017-Jan-15 10:31N 46°20' E 030°39'0 0.0
2017-Jan-15 09:31N 46°20' E 030°39'0 0.0
2017-Jan-15 08:28N 46°20' E 030°39'0 0.0
2017-Jan-15 07:31N 46°20' E 030°39'0 0.0
2017-Jan-15 06:16N 46°20' E 030°39'0 0.0
2017-Jan-15 05:28N 46°20' E 030°39'0 0.0
2017-Jan-15 04:25N 46°20' E 030°39'0 0.0
2017-Jan-15 03:31N 46°20' E 030°39'0 0.0
2017-Jan-15 02:25N 46°20' E 030°39'0 0.0
2017-Jan-15 01:31N 46°20' E 030°39'0 0.0
2017-Jan-15 00:22N 46°20' E 030°39'0 0.0
2017-Jan-14 19:25N 46°20' E 030°39'0 0.0
2017-Jan-14 18:28N 46°20' E 030°39'0 0.0
2017-Jan-14 17:25N 46°20' E 030°39'0 0.0
2017-Jan-14 16:28N 46°20' E 030°39'0 0.0
2017-Jan-14 15:28N 46°20' E 030°39'0 0.0
2017-Jan-14 14:22N 46°20' E 030°39'0 0.0
2017-Jan-14 13:31N 46°20' E 030°39'0 0.0
2017-Jan-14 12:28N 46°20' E 030°39'0 0.0
2017-Jan-14 09:28N 46°20' E 030°39'0 0.0
2017-Jan-14 08:34N 46°20' E 030°39'0 0.0
2017-Jan-14 07:34N 46°20' E 030°39'0 0.0
2017-Jan-14 06:33N 46°20' E 030°39'0 0.0
2017-Jan-14 05:34N 46°20' E 030°39'0 0.0
2017-Jan-14 04:34N 46°20' E 030°39'0 0.0
2017-Jan-14 03:33N 46°20' E 030°39'0 0.0
2017-Jan-13 23:33N 46°20' E 030°39'0 0.0
2017-Jan-13 22:33N 46°20' E 030°39'0 0.0
2017-Jan-13 21:33N 46°20' E 030°39'0 0.0
2017-Jan-13 20:34N 46°20' E 030°39'0 0.0
2017-Jan-13 19:33N 46°20' E 030°39'0 0.0
2017-Jan-13 18:34N 46°20' E 030°39'0 0.0
2017-Jan-13 17:33N 46°20' E 030°39'0 0.0
2017-Jan-13 16:34N 46°20' E 030°39'0 0.0
2017-Jan-13 15:33N 46°20' E 030°39'0 0.0
2017-Jan-13 14:33N 46°20' E 030°39'0 0.0
2017-Jan-13 13:33N 46°20' E 030°39'0 0.0
2017-Jan-13 12:34N 46°20' E 030°39'0 0.0
2017-Jan-13 11:33N 46°20' E 030°39'0 0.0
2017-Jan-13 10:34N 46°20' E 030°39'0 0.0
2017-Jan-13 09:33N 46°20' E 030°39'0 0.0
2017-Jan-13 08:33N 46°20' E 030°39'0 0.0
2017-Jan-13 02:21N 46°20' E 030°39'0 0.0
2017-Jan-13 01:33N 46°20' E 030°39'0 0.0
2017-Jan-13 00:33N 46°20' E 030°39'0 0.0
2017-Jan-12 23:18N 46°20' E 030°39'0 0.0
2017-Jan-12 14:28N 46°20' E 030°39'0 0.0
2017-Jan-12 13:33N 46°20' E 030°39'0 0.0
2017-Jan-12 12:33N 46°20' E 030°39'0 0.0
2017-Jan-12 11:34N 46°20' E 030°39'0 0.0
2017-Jan-11 03:32N 46°20' E 030°39'  

Dump ship's entire track history